createdAt,value
2018-06-25T00:02:28.733Z,97199.40
2018-06-25T00:04:57.990Z,97207.47
2018-06-25T00:07:27.205Z,97201.11
2018-06-25T00:09:56.605Z,97205.36
2018-06-25T00:12:25.785Z,97202.81
2018-06-25T00:14:55.022Z,97206.23
2018-06-25T00:17:24.295Z,97207.95
2018-06-25T00:19:53.502Z,97207.95
2018-06-25T00:22:22.711Z,97211.38
2018-06-25T00:24:51.975Z,97206.70
2018-06-25T00:27:21.189Z,97214.81
2018-06-25T00:29:50.387Z,97211.00
2018-06-25T00:32:19.590Z,97213.58
2018-06-25T00:34:48.774Z,97218.69
2018-06-25T00:37:18.180Z,97217.41
2018-06-25T00:39:47.368Z,97216.56
2018-06-25T00:42:16.577Z,97209.75
2018-06-25T00:44:45.794Z,97216.98
2018-06-25T00:47:15.005Z,97218.73
2018-06-25T00:49:44.177Z,97214.88
2018-06-25T00:52:13.404Z,97219.15
2018-06-25T00:54:42.707Z,97215.31
2018-06-25T00:57:11.987Z,97214.07
2018-06-25T00:59:57.471Z,97214.05
2018-06-25T01:02:26.669Z,97215.74
2018-06-25T01:04:55.884Z,97217.89
2018-06-25T01:07:25.066Z,97216.59
2018-06-25T01:09:54.287Z,97223.39
2018-06-25T01:12:23.560Z,97216.56
2018-06-25T01:14:52.886Z,97213.60
2018-06-25T01:17:22.043Z,97222.54
2018-06-25T01:19:51.244Z,97219.98
2018-06-25T01:22:20.442Z,97224.68
2018-06-25T01:24:49.645Z,97229.38
2018-06-25T01:27:18.857Z,97224.68
2018-06-25T01:29:48.027Z,97230.66
2018-06-25T01:32:17.235Z,97230.66
2018-06-25T01:34:46.449Z,97232.80
2018-06-25T01:37:15.667Z,97231.51
2018-06-25T01:39:44.947Z,97230.23
2018-06-25T01:42:14.175Z,97236.20
2018-06-25T01:44:43.345Z,97237.89
2018-06-25T01:47:12.510Z,97237.88
2018-06-25T01:49:41.881Z,97239.98
2018-06-25T01:52:11.042Z,97234.48
2018-06-25T01:54:40.257Z,97237.84
2018-06-25T01:57:09.504Z,97237.82
2018-06-25T01:59:38.660Z,97251.02
2018-06-25T02:02:08.129Z,97246.35
2018-06-25T02:04:37.264Z,97249.73
2018-06-25T02:07:06.413Z,97243.78
2018-06-25T02:09:35.593Z,97252.71
2018-06-25T02:12:04.792Z,97248.86
2018-06-25T02:14:34.038Z,97253.10
2018-06-25T02:17:03.188Z,97252.25
2018-06-25T02:19:32.418Z,97251.84
2018-06-25T02:22:01.582Z,97245.85
2018-06-25T02:24:30.801Z,97255.19
2018-06-25T02:27:00.900Z,97253.08
2018-06-25T02:29:30.066Z,97253.05
2018-06-25T02:31:59.330Z,97252.22
2018-06-25T02:34:28.521Z,97252.22
2018-06-25T02:36:57.824Z,97251.33
2018-06-25T02:39:26.993Z,97256.43
2018-06-25T02:41:56.292Z,97255.16
2018-06-25T02:44:25.470Z,97253.88
2018-06-25T02:46:54.604Z,97254.74
2018-06-25T02:49:24.045Z,97256.46
2018-06-25T02:51:53.186Z,97254.77
2018-06-25T02:54:22.345Z,97261.59
2018-06-25T02:56:51.590Z,97257.34
2018-06-25T02:59:20.799Z,97270.54
2018-06-25T03:01:49.930Z,97263.28
2018-06-25T03:04:19.116Z,97267.08
2018-06-25T03:06:48.298Z,97270.03
2018-06-25T03:09:17.402Z,97279.41
2018-06-25T03:11:46.580Z,97278.55
2018-06-25T03:14:15.727Z,97276.85
2018-06-25T03:16:44.943Z,97282.78
2018-06-25T03:19:14.214Z,97282.78
2018-06-25T03:21:43.396Z,97285.77
2018-06-25T03:24:12.584Z,97288.73
2018-06-25T03:26:41.874Z,97286.19
2018-06-25T03:29:11.138Z,97284.50
2018-06-25T03:31:40.354Z,97284.02
2018-06-25T03:34:09.542Z,97289.48
2018-06-25T03:36:38.764Z,97291.62
2018-06-25T03:39:09.566Z,97286.11
2018-06-25T03:41:38.782Z,97285.29
2018-06-25T03:44:07.980Z,97284.43
2018-06-25T03:46:37.190Z,97287.84
2018-06-25T03:49:06.426Z,97290.84
2018-06-25T03:51:35.794Z,97298.94
2018-06-25T03:54:04.944Z,97298.52
2018-06-25T03:56:34.174Z,97298.94
2018-06-25T03:59:03.394Z,97293.42
2018-06-25T04:01:32.531Z,97297.25
2018-06-25T04:04:01.908Z,97302.41
2018-06-25T04:06:31.110Z,97304.99
2018-06-25T04:09:00.326Z,97300.34
2018-06-25T04:11:29.500Z,97302.44
2018-06-25T04:13:58.730Z,97302.44
2018-06-25T04:16:27.874Z,97298.64
2018-06-25T04:19:01.587Z,97302.46
2018-06-25T04:21:30.815Z,97309.67
2018-06-25T04:24:00.384Z,97306.70
2018-06-25T04:26:29.991Z,97306.29
2018-06-25T04:28:59.246Z,97315.22
2018-06-25T04:31:29.184Z,97316.05
2018-06-25T04:33:58.768Z,97323.70
2018-06-25T04:36:27.954Z,97323.28
2018-06-25T04:38:57.230Z,97323.70
2018-06-25T04:41:26.430Z,97327.11
2018-06-25T04:43:55.604Z,97333.94
2018-06-25T04:46:24.807Z,97326.28
2018-06-25T04:48:53.989Z,97330.55
2018-06-25T04:51:23.230Z,97323.77
2018-06-25T04:53:52.436Z,97322.10
2018-06-25T04:56:21.664Z,97323.81
2018-06-25T04:58:50.858Z,97317.88
2018-06-25T05:01:20.113Z,97327.23
2018-06-25T05:03:49.286Z,97323.39
2018-06-25T05:06:18.516Z,97330.63
2018-06-25T05:08:47.694Z,97331.91
2018-06-25T05:11:16.884Z,97333.20
2018-06-25T05:13:46.081Z,97332.34
2018-06-25T05:16:15.375Z,97337.88
2018-06-25T05:18:44.590Z,97341.70
2018-06-25T05:21:14.254Z,97341.70
2018-06-25T05:23:43.530Z,97342.55
2018-06-25T05:26:12.882Z,97343.41
2018-06-25T05:28:42.078Z,97349.39
2018-06-25T05:31:11.250Z,97351.09
2018-06-25T05:33:40.980Z,97348.53
2018-06-25T05:36:10.174Z,97346.39
2018-06-25T05:38:39.342Z,97349.38
2018-06-25T05:41:08.573Z,97356.63
2018-06-25T05:43:37.728Z,97360.02
2018-06-25T05:46:07.336Z,97357.88
2018-06-25T05:48:36.490Z,97361.70
2018-06-25T05:51:05.670Z,97358.72
2018-06-25T05:53:34.979Z,97357.87
2018-06-25T05:56:04.753Z,97359.58
2018-06-25T05:58:33.962Z,97364.64
2018-06-25T06:01:03.203Z,97371.92
2018-06-25T06:03:32.391Z,97373.20
2018-06-25T06:06:01.597Z,97371.50
2018-06-25T06:08:30.911Z,97374.88
2018-06-25T06:11:00.218Z,97369.80
2018-06-25T06:13:29.383Z,97375.33
2018-06-25T06:15:58.600Z,97373.62
2018-06-25T06:18:27.955Z,97378.72
2018-06-25T06:20:57.743Z,97386.37
2018-06-25T06:23:27.093Z,97379.11
2018-06-25T06:25:56.559Z,97390.17
2018-06-25T06:28:25.729Z,97394.48
2018-06-25T06:30:55.115Z,97401.32
2018-06-25T06:33:24.233Z,97402.16
2018-06-25T06:35:53.444Z,97393.23
2018-06-25T06:38:22.669Z,97397.91
2018-06-25T06:40:51.916Z,97409.41
2018-06-25T06:43:21.226Z,97407.27
2018-06-25T06:45:50.409Z,97401.75
2018-06-25T06:48:19.614Z,97403.88
2018-06-25T06:52:13.169Z,97407.27
2018-06-25T06:54:42.603Z,97407.25
2018-06-25T06:57:11.940Z,97404.29
2018-06-25T06:59:41.277Z,97404.27
2018-06-25T07:02:10.409Z,97401.25
2018-06-25T07:04:39.608Z,97399.14
2018-06-25T07:07:08.814Z,97397.86
2018-06-25T07:09:38.044Z,97397.77
2018-06-25T07:12:07.316Z,97397.72
2018-06-25T07:14:36.544Z,97395.95
2018-06-25T07:17:05.750Z,97401.04
2018-06-25T07:19:34.965Z,97395.02
2018-06-25T07:22:04.382Z,97402.70
2018-06-25T07:24:33.519Z,97399.36
2018-06-25T07:27:02.861Z,97401.98
2018-06-25T07:29:32.008Z,97402.81
2018-06-25T07:32:01.094Z,97401.09
2018-06-25T07:34:30.412Z,97398.44
2018-06-25T07:36:59.585Z,97400.92
2018-06-25T07:39:28.738Z,97395.80
2018-06-25T07:41:57.909Z,97401.36
2018-06-25T07:44:27.068Z,97402.65
2018-06-25T07:46:56.332Z,97405.97
2018-06-25T07:49:25.386Z,97405.16
2018-06-25T07:51:54.624Z,97412.89
2018-06-25T07:54:23.811Z,97413.73
2018-06-25T07:56:53.018Z,97413.73
2018-06-25T07:59:22.199Z,97408.23
2018-06-25T08:01:51.437Z,97407.83
2018-06-25T08:04:20.703Z,97417.27
2018-06-25T08:06:49.885Z,97416.84
2018-06-25T08:09:19.036Z,97413.79
2018-06-25T08:11:48.240Z,97415.40
2018-06-25T08:14:17.489Z,97410.16
2018-06-25T08:16:46.764Z,97409.19
2018-06-25T08:19:15.945Z,97404.77
2018-06-25T08:21:45.201Z,97402.97
2018-06-25T08:24:14.386Z,97408.02
2018-06-25T08:26:43.595Z,97407.10
2018-06-25T08:29:12.888Z,97407.80
2018-06-25T08:31:42.097Z,97407.58
2018-06-25T08:34:11.277Z,97409.20
2018-06-25T08:36:40.405Z,97414.03
2018-06-25T08:39:11.650Z,97417.72
2018-06-25T08:41:41.192Z,97420.89
2018-06-25T08:44:10.345Z,97418.28
2018-06-25T08:46:39.965Z,97421.10
2018-06-25T08:49:09.628Z,97424.84
2018-06-25T08:51:38.801Z,97426.28
2018-06-25T08:54:08.065Z,97428.75
2018-06-25T08:56:38.239Z,97431.21
2018-06-25T08:59:07.601Z,97430.33
2018-06-25T09:01:36.898Z,97420.88
2018-06-25T09:04:06.335Z,97431.84
2018-06-25T09:06:35.509Z,97423.13
2018-06-25T09:09:07.032Z,97436.14
2018-06-25T09:11:36.361Z,97440.48
2018-06-25T09:14:05.744Z,97439.66
2018-06-25T09:16:34.930Z,97442.22
2018-06-25T09:19:04.168Z,97443.00
2018-06-25T09:21:33.404Z,97448.84
2018-06-25T09:24:02.626Z,97447.48
2018-06-25T09:26:31.924Z,97456.48
2018-06-25T09:29:01.297Z,97461.18
2018-06-25T09:31:30.535Z,97460.92
2018-06-25T09:33:59.760Z,97457.55
2018-06-25T09:36:28.916Z,97460.83
2018-06-25T09:38:58.088Z,97461.58
2018-06-25T09:41:27.361Z,97461.32
2018-06-25T09:43:56.592Z,97469.66
2018-06-25T09:46:25.794Z,97471.74
2018-06-25T09:48:55.072Z,97470.80
2018-06-25T09:51:24.222Z,97477.36
2018-06-25T09:53:53.405Z,97473.72
2018-06-25T09:56:23.125Z,97471.50
2018-06-25T09:58:52.444Z,97470.87
2018-06-25T10:01:21.600Z,97465.16
2018-06-25T10:03:50.890Z,97464.27
2018-06-25T10:06:20.055Z,97468.50
2018-06-25T10:08:49.214Z,97470.98
2018-06-25T10:11:18.396Z,97472.62
2018-06-25T10:13:54.367Z,97471.63
2018-06-25T10:16:23.845Z,97466.77
2018-06-25T10:18:53.063Z,97472.51
2018-06-25T10:21:22.382Z,97476.37
2018-06-25T10:23:51.620Z,97469.13
2018-06-25T10:26:20.789Z,97476.25
2018-06-25T10:28:49.956Z,97475.39
2018-06-25T10:31:19.262Z,97476.98
2018-06-25T10:33:48.381Z,97475.94
2018-06-25T10:36:17.834Z,97472.80
2018-06-25T10:38:47.078Z,97468.47
2018-06-25T10:41:16.208Z,97465.80
2018-06-25T10:43:45.424Z,97466.51
2018-06-25T10:46:14.602Z,97464.50
2018-06-25T10:48:43.835Z,97463.86
2018-06-25T10:51:12.995Z,97465.44
2018-06-25T10:53:42.143Z,97466.00
2018-06-25T10:56:11.285Z,97469.08
2018-06-25T10:58:40.601Z,97460.19
2018-06-25T11:01:09.865Z,97457.88
2018-06-25T11:03:38.959Z,97458.92
2018-06-25T11:06:09.504Z,97457.95
2018-06-25T11:08:40.000Z,97457.74
2018-06-25T11:11:09.663Z,97463.46
2018-06-25T11:13:38.870Z,97466.58
2018-06-25T11:16:08.074Z,97464.08
2018-06-25T11:18:37.230Z,97467.78
2018-06-25T11:21:06.513Z,97463.30
2018-06-25T11:23:35.688Z,97462.70
2018-06-25T11:26:04.907Z,97464.81
2018-06-25T11:28:34.144Z,97456.92
2018-06-25T11:31:03.367Z,97464.42
2018-06-25T11:33:32.664Z,97462.43
2018-06-25T11:36:01.964Z,97456.92
2018-06-25T11:38:31.171Z,97454.64
2018-06-25T11:41:00.331Z,97451.99
2018-06-25T11:43:29.693Z,97457.77
2018-06-25T11:45:59.021Z,97458.93
2018-06-25T11:48:28.163Z,97456.91
2018-06-25T11:50:57.351Z,97455.28
2018-06-25T11:53:26.483Z,97451.31
2018-06-25T11:55:55.783Z,97450.07
2018-06-25T11:58:24.961Z,97458.49
2018-06-25T12:00:54.226Z,97447.59
2018-06-25T12:03:23.397Z,97453.82
2018-06-25T12:05:52.551Z,97452.01
2018-06-25T12:08:21.762Z,97455.89
2018-06-25T12:10:51.057Z,97456.22
2018-06-25T12:13:20.391Z,97454.76
2018-06-25T12:15:49.651Z,97452.42
2018-06-25T12:18:18.814Z,97458.12
2018-06-25T12:20:48.049Z,97455.54
2018-06-25T12:23:17.179Z,97457.15
2018-06-25T12:25:46.403Z,97453.97
2018-06-25T12:28:15.628Z,97461.34
2018-06-25T12:30:44.857Z,97461.06
2018-06-25T12:33:14.026Z,97463.83
2018-06-25T12:35:43.164Z,97469.02
2018-06-25T12:38:12.406Z,97467.48
2018-06-25T12:40:41.816Z,97464.84
2018-06-25T12:43:11.037Z,97473.86
2018-06-25T12:45:40.089Z,97472.61
2018-06-25T12:48:09.407Z,97474.72
2018-06-25T12:50:38.606Z,97470.30
2018-06-25T12:53:07.877Z,97476.95
2018-06-25T12:55:37.133Z,97465.25
2018-06-25T12:58:06.537Z,97473.20
2018-06-25T13:00:35.711Z,97474.84
2018-06-25T13:03:06.169Z,97471.23
2018-06-25T13:05:35.291Z,97472.61
2018-06-25T13:08:04.456Z,97471.84
2018-06-25T13:10:33.657Z,97475.03
2018-06-25T13:13:02.927Z,97466.97
2018-06-25T13:15:32.123Z,97464.45
2018-06-25T13:18:01.310Z,97462.55
2018-06-25T13:20:30.537Z,97460.58
2018-06-25T13:22:59.843Z,97458.91
2018-06-25T13:25:29.073Z,97458.45
2018-06-25T13:27:58.321Z,97460.33
2018-06-25T13:30:27.737Z,97461.23
2018-06-25T13:32:56.917Z,97460.69
2018-06-25T13:35:26.156Z,97461.09
2018-06-25T13:37:55.351Z,97452.13
2018-06-25T13:40:24.538Z,97450.69
2018-06-25T13:42:53.797Z,97447.34
2018-06-25T13:45:22.960Z,97437.14
2018-06-25T13:47:52.243Z,97448.98
2018-06-25T13:50:21.473Z,97446.72
2018-06-25T13:52:50.642Z,97447.49
2018-06-25T13:55:19.876Z,97446.80
2018-06-25T13:57:49.046Z,97444.16
2018-06-25T14:00:18.282Z,97450.73
2018-06-25T14:02:47.436Z,97444.73
2018-06-25T14:05:16.636Z,97447.27
2018-06-25T14:07:45.792Z,97447.08
2018-06-25T14:10:15.043Z,97448.61
2018-06-25T14:12:44.233Z,97453.99
2018-06-25T14:15:13.450Z,97451.44
2018-06-25T14:17:42.878Z,97453.11
2018-06-25T14:20:12.049Z,97453.64
2018-06-25T14:22:41.386Z,97446.38
2018-06-25T14:25:10.563Z,97444.08
2018-06-25T14:27:44.968Z,97444.88
2018-06-25T14:30:19.336Z,97451.05
2018-06-25T14:32:55.614Z,97450.42
2018-06-25T14:35:24.864Z,97451.70
2018-06-25T14:37:54.015Z,97450.20
2018-06-25T14:40:23.186Z,97453.09
2018-06-25T14:42:52.368Z,97453.17
2018-06-25T14:45:21.541Z,97456.78
2018-06-25T14:47:50.750Z,97452.36
2018-06-25T14:50:20.007Z,97447.20
2018-06-25T14:52:49.229Z,97442.77
2018-06-25T14:55:18.427Z,97444.31
2018-06-25T14:57:47.645Z,97448.22
2018-06-25T15:00:20.617Z,97449.62
2018-06-25T15:02:50.813Z,97447.41
2018-06-25T15:05:20.047Z,97445.63
2018-06-25T15:07:49.271Z,97442.24
2018-06-25T15:10:18.445Z,97436.94
2018-06-25T15:12:47.718Z,97435.06
2018-06-25T15:15:16.929Z,97427.84
2018-06-25T15:17:46.183Z,97427.59
2018-06-25T15:20:15.411Z,97428.30
2018-06-25T15:22:44.672Z,97435.14
2018-06-25T15:25:13.911Z,97432.30
2018-06-25T15:27:43.110Z,97433.20
2018-06-25T15:30:12.299Z,97426.11
2018-06-25T15:32:41.900Z,97429.50
2018-06-25T15:35:11.073Z,97427.53
2018-06-25T15:37:40.291Z,97423.69
2018-06-25T15:40:09.495Z,97426.86
2018-06-25T15:42:38.696Z,97423.55
2018-06-25T15:45:07.961Z,97414.67
2018-06-25T15:47:37.133Z,97414.11
2018-06-25T15:50:06.365Z,97418.98
2018-06-25T15:52:35.564Z,97422.20
2018-06-25T15:55:04.870Z,97420.11
2018-06-25T15:57:34.044Z,97420.08
2018-06-25T16:00:03.411Z,97421.25
2018-06-25T16:02:32.530Z,97419.34
2018-06-25T16:05:01.750Z,97417.33
2018-06-25T16:07:30.933Z,97415.13
2018-06-25T16:10:00.125Z,97419.91
2018-06-25T16:12:29.300Z,97426.11
2018-06-25T16:14:58.470Z,97422.94
2018-06-25T16:17:27.654Z,97415.72
2018-06-25T16:19:56.835Z,97421.17
2018-06-25T16:22:25.970Z,97417.82
2018-06-25T16:24:55.141Z,97419.49
2018-06-25T16:27:24.349Z,97415.53
2018-06-25T16:29:53.518Z,97420.03
2018-06-25T16:32:22.692Z,97419.82
2018-06-25T16:34:51.913Z,97417.66
2018-06-25T16:37:21.060Z,97416.42
2018-06-25T16:39:50.234Z,97412.16
2018-06-25T16:42:19.567Z,97413.93
2018-06-25T16:44:48.723Z,97417.55
2018-06-25T16:47:17.905Z,97410.37
2018-06-25T16:49:47.132Z,97414.63
2018-06-25T16:52:16.336Z,97415.84
2018-06-25T16:54:45.501Z,97410.34
2018-06-25T16:57:14.692Z,97410.90
2018-06-25T16:59:43.925Z,97408.92
2018-06-25T17:02:13.124Z,97412.93
2018-06-25T17:04:42.358Z,97410.86
2018-06-25T17:07:11.604Z,97404.16
2018-06-25T17:09:40.966Z,97408.45
2018-06-25T17:12:10.222Z,97410.30
2018-06-25T17:14:39.548Z,97413.86
2018-06-25T17:17:08.838Z,97414.09
2018-06-25T17:19:38.116Z,97415.08
2018-06-25T17:22:07.470Z,97412.78
2018-06-25T17:24:36.792Z,97411.36
2018-06-25T17:27:06.193Z,97420.02
2018-06-25T17:29:35.442Z,97421.85
2018-06-25T17:32:04.637Z,97420.95
2018-06-25T17:34:33.862Z,97420.13
2018-06-25T17:37:03.111Z,97419.31
2018-06-25T17:39:32.409Z,97420.25
2018-06-25T17:42:01.643Z,97424.61
2018-06-25T17:44:30.819Z,97428.16
2018-06-25T17:47:00.818Z,97431.66
2018-06-25T17:49:29.999Z,97435.06
2018-06-25T17:51:59.228Z,97426.30
2018-06-25T17:54:28.447Z,97425.33
2018-06-25T17:56:57.662Z,97421.89
2018-06-25T17:59:26.908Z,97424.04
2018-06-25T18:01:56.056Z,97416.38
2018-06-25T18:04:25.368Z,97423.68
2018-06-25T18:06:54.589Z,97420.25
2018-06-25T18:09:24.165Z,97415.59
2018-06-25T18:11:53.602Z,97419.60
2018-06-25T18:14:23.279Z,97426.22
2018-06-25T18:16:52.891Z,97422.06
2018-06-25T18:19:22.638Z,97424.37
2018-06-25T18:21:52.479Z,97422.80
2018-06-25T18:24:21.821Z,97416.95
2018-06-25T18:26:52.000Z,97425.66
2018-06-25T18:29:21.351Z,97426.28
2018-06-25T18:31:50.953Z,97423.45
2018-06-25T18:34:20.754Z,97429.67
2018-06-25T18:36:50.420Z,97433.27
2018-06-25T18:39:20.225Z,97439.81
2018-06-25T18:41:49.822Z,97441.58
2018-06-25T18:57:18.709Z,97443.11
2018-06-25T18:59:48.209Z,97445.31
2018-06-25T19:02:17.644Z,97450.48
2018-06-25T19:04:46.970Z,97445.46
2018-06-25T19:07:16.192Z,97444.69
2018-06-25T19:09:45.509Z,97445.63
2018-06-25T19:12:14.695Z,97447.45
2018-06-25T19:14:43.892Z,97450.08
2018-06-25T19:17:13.214Z,97454.42
2018-06-25T19:19:42.423Z,97450.17
2018-06-25T19:22:11.960Z,97451.11
2018-06-25T19:24:41.229Z,97449.03
2018-06-25T19:27:10.503Z,97453.81
2018-06-25T19:29:39.738Z,97456.02
2018-06-25T19:32:09.055Z,97464.16
2018-06-25T19:34:38.454Z,97469.33
2018-06-25T19:37:07.752Z,97473.62
2018-06-25T19:39:37.092Z,97478.31
2018-06-25T19:42:06.386Z,97479.20
2018-06-25T19:44:36.083Z,97486.49
2018-06-25T19:47:05.910Z,97490.78
2018-06-25T19:49:35.260Z,97488.25
2018-06-25T19:52:04.643Z,97493.39
2018-06-25T19:54:34.352Z,97490.02
2018-06-25T19:57:04.171Z,97491.73
2018-06-25T19:59:33.673Z,97491.77
2018-06-25T20:02:02.954Z,97502.48
2018-06-25T20:04:32.334Z,97494.84
2018-06-25T20:07:02.119Z,97495.28
2018-06-25T20:09:31.347Z,97494.47
2018-06-25T20:12:00.555Z,97497.50
2018-06-25T20:14:29.822Z,97500.52
2018-06-25T20:16:58.988Z,97498.84
2018-06-25T20:19:28.207Z,97500.55
2018-06-25T20:21:57.441Z,97499.72
2018-06-25T20:24:26.633Z,97507.02
2018-06-25T20:26:55.852Z,97505.77
2018-06-25T20:29:25.039Z,97508.40
2018-06-25T20:31:54.584Z,97515.25
2018-06-25T20:34:24.367Z,97516.12
2018-06-25T20:36:53.900Z,97522.14
2018-06-25T20:39:23.140Z,97512.73
2018-06-25T20:41:52.365Z,97518.29
2018-06-25T20:44:21.756Z,97515.73
2018-06-25T20:46:50.930Z,97517.02
2018-06-25T20:49:20.144Z,97519.59
2018-06-25T20:51:49.387Z,97524.73
2018-06-25T20:54:18.693Z,97523.02
2018-06-25T20:56:47.908Z,97526.02
2018-06-25T20:59:17.050Z,97523.03
2018-06-25T21:01:46.176Z,97514.50
2018-06-25T21:04:15.298Z,97517.92
2018-06-25T21:06:44.557Z,97520.48
2018-06-25T21:09:13.847Z,97520.52
2018-06-25T21:11:43.282Z,97521.38
2018-06-25T21:14:12.446Z,97514.58
2018-06-25T21:16:41.660Z,97522.25
2018-06-25T21:19:10.823Z,97520.55
2018-06-25T21:21:40.079Z,97519.70
2018-06-25T21:24:09.217Z,97523.13
2018-06-25T21:26:38.425Z,97527.41
2018-06-25T21:29:07.938Z,97528.27
2018-06-25T21:31:37.158Z,97530.84
2018-06-25T21:34:06.528Z,97531.69
2018-06-25T21:36:35.741Z,97530.84
2018-06-25T21:39:07.136Z,97529.97
2018-06-25T21:41:36.348Z,97533.39
2018-06-25T21:44:05.713Z,97530.39
2018-06-25T21:46:34.926Z,97532.09
2018-06-25T21:49:04.133Z,97524.01
2018-06-25T21:51:33.313Z,97520.19
2018-06-25T21:54:02.475Z,97532.53
2018-06-25T21:56:31.652Z,97533.39
2018-06-25T21:59:00.866Z,97533.41
2018-06-25T22:01:30.037Z,97541.52
2018-06-25T22:03:59.271Z,97548.77
2018-06-25T22:06:28.406Z,97539.82
2018-06-25T22:08:57.603Z,97539.39
2018-06-25T22:11:26.813Z,97554.72
2018-06-25T22:13:55.964Z,97547.00
2018-06-25T22:16:25.211Z,97543.59
2018-06-25T22:18:54.461Z,97541.48
2018-06-25T22:21:23.587Z,97540.18
2018-06-25T22:23:52.709Z,97547.42
2018-06-25T22:26:21.848Z,97548.70
2018-06-25T22:28:51.054Z,97548.70
2018-06-25T22:31:20.271Z,97551.23
2018-06-25T22:33:49.440Z,97543.58
2018-06-25T22:36:18.665Z,97541.44
2018-06-25T22:38:47.826Z,97546.97
2018-06-25T22:41:17.003Z,97541.83
2018-06-25T22:43:46.491Z,97536.28
2018-06-25T22:46:15.661Z,97538.84
2018-06-25T22:48:44.855Z,97539.67
2018-06-25T22:51:14.117Z,97539.22
2018-06-25T22:53:43.296Z,97534.98
2018-06-25T22:56:12.461Z,97528.14
2018-06-25T22:58:41.648Z,97530.70
2018-06-25T23:01:10.850Z,97528.98
2018-06-25T23:03:40.082Z,97531.53
2018-06-25T23:06:09.196Z,97533.22
2018-06-25T23:08:38.352Z,97536.59
2018-06-25T23:11:07.651Z,97531.91
2018-06-25T23:13:36.874Z,97534.45
2018-06-25T23:16:06.044Z,97528.08
2018-06-25T23:18:35.533Z,97533.59
2018-06-25T23:21:04.713Z,97533.97
2018-06-25T23:23:33.985Z,97541.63
2018-06-25T23:26:03.159Z,97531.83
2018-06-25T23:28:32.334Z,97533.96
2018-06-25T23:31:01.579Z,97527.99
2018-06-25T23:33:30.771Z,97538.16
2018-06-25T23:35:59.955Z,97533.88
2018-06-25T23:38:29.170Z,97533.84
2018-06-25T23:40:58.433Z,97534.25
2018-06-25T23:43:27.599Z,97537.66
2018-06-25T23:45:56.797Z,97540.57
2018-06-25T23:48:25.935Z,97539.70
2018-06-25T23:50:55.094Z,97534.18
2018-06-25T23:53:24.256Z,97532.86
2018-06-25T23:55:53.424Z,97529.45
2018-06-25T23:58:22.613Z,97529.03
